sensor_id;sensor_type;location;lat;lon;timestamp;temperature;humidity
9497;DHT22;4786;51.270;4.456;2023-04-08T00:01:10;9.80;99.90
9497;DHT22;4786;51.270;4.456;2023-04-08T00:03:36;9.90;99.90
9497;DHT22;4786;51.270;4.456;2023-04-08T00:06:02;9.80;99.90
9497;DHT22;4786;51.270;4.456;2023-04-08T00:08:29;9.80;99.90
9497;DHT22;4786;51.270;4.456;2023-04-08T00:10:55;9.80;99.90
9497;DHT22;4786;51.270;4.456;2023-04-08T00:13:21;9.70;99.90
9497;DHT22;4786;51.270;4.456;2023-04-08T00:15:46;9.70;99.90
9497;DHT22;4786;51.270;4.456;2023-04-08T00:18:13;9.80;99.90
9497;DHT22;4786;51.270;4.456;2023-04-08T00:20:42;9.70;99.90
9497;DHT22;4786;51.270;4.456;2023-04-08T00:23:08;9.80;99.90
9497;DHT22;4786;51.270;4.456;2023-04-08T00:25:34;9.90;99.90
9497;DHT22;4786;51.270;4.456;2023-04-08T00:28:01;9.70;99.90
9497;DHT22;4786;51.270;4.456;2023-04-08T00:30:27;9.70;99.90
9497;DHT22;4786;51.270;4.456;2023-04-08T00:32:53;9.80;99.90
9497;DHT22;4786;51.270;4.456;2023-04-08T00:35:19;9.70;99.90
9497;DHT22;4786;51.270;4.456;2023-04-08T00:37:44;9.70;99.90
9497;DHT22;4786;51.270;4.456;2023-04-08T00:40:11;9.90;99.90
9497;DHT22;4786;51.270;4.456;2023-04-08T00:42:37;9.80;99.90
9497;DHT22;4786;51.270;4.456;2023-04-08T00:45:04;9.70;99.90
9497;DHT22;4786;51.270;4.456;2023-04-08T00:47:30;9.70;99.90
9497;DHT22;4786;51.270;4.456;2023-04-08T00:49:56;9.70;99.90
9497;DHT22;4786;51.270;4.456;2023-04-08T00:52:22;9.70;99.90
9497;DHT22;4786;51.270;4.456;2023-04-08T00:54:48;9.70;99.90
9497;DHT22;4786;51.270;4.456;2023-04-08T00:57:14;9.60;99.90
9497;DHT22;4786;51.270;4.456;2023-04-08T00:59:41;9.70;99.90
9497;DHT22;4786;51.270;4.456;2023-04-08T01:05:31;9.70;99.90
9497;DHT22;4786;51.270;4.456;2023-04-08T01:08:01;9.70;99.90
9497;DHT22;4786;51.270;4.456;2023-04-08T01:10:30;9.70;99.90
9497;DHT22;4786;51.270;4.456;2023-04-08T01:13:11;9.60;99.90
9497;DHT22;4786;51.270;4.456;2023-04-08T01:15:41;9.70;99.90
9497;DHT22;4786;51.270;4.456;2023-04-08T01:18:10;9.70;99.90
9497;DHT22;4786;51.270;4.456;2023-04-08T01:20:39;9.60;99.90
9497;DHT22;4786;51.270;4.456;2023-04-08T01:23:24;9.60;99.90
9497;DHT22;4786;51.270;4.456;2023-04-08T01:25:56;9.60;99.90
9497;DHT22;4786;51.270;4.456;2023-04-08T01:28:26;9.60;99.90
9497;DHT22;4786;51.270;4.456;2023-04-08T01:30:55;9.60;99.90
9497;DHT22;4786;51.270;4.456;2023-04-08T01:33:23;9.60;99.90
9497;DHT22;4786;51.270;4.456;2023-04-08T01:35:50;9.60;99.90
9497;DHT22;4786;51.270;4.456;2023-04-08T01:38:18;9.60;99.90
9497;DHT22;4786;51.270;4.456;2023-04-08T01:40:46;9.60;99.90
9497;DHT22;4786;51.270;4.456;2023-04-08T01:43:14;9.60;99.90
9497;DHT22;4786;51.270;4.456;2023-04-08T01:45:46;9.60;99.90
9497;DHT22;4786;51.270;4.456;2023-04-08T01:48:13;9.60;99.90
9497;DHT22;4786;51.270;4.456;2023-04-08T01:50:43;9.60;99.90
9497;DHT22;4786;51.270;4.456;2023-04-08T01:53:10;9.80;99.90
9497;DHT22;4786;51.270;4.456;2023-04-08T01:55:37;9.60;99.90
9497;DHT22;4786;51.270;4.456;2023-04-08T01:58:06;9.80;99.90
9497;DHT22;4786;51.270;4.456;2023-04-08T02:00:33;9.60;99.90
9497;DHT22;4786;51.270;4.456;2023-04-08T02:03:01;9.80;99.90
9497;DHT22;4786;51.270;4.456;2023-04-08T02:05:27;9.70;99.90
9497;DHT22;4786;51.270;4.456;2023-04-08T02:07:53;9.60;99.90
9497;DHT22;4786;51.270;4.456;2023-04-08T02:10:19;9.70;99.90
9497;DHT22;4786;51.270;4.456;2023-04-08T02:12:45;9.70;99.90
9497;DHT22;4786;51.270;4.456;2023-04-08T02:15:12;9.70;99.90
9497;DHT22;4786;51.270;4.456;2023-04-08T02:22:48;9.70;99.90
9497;DHT22;4786;51.270;4.456;2023-04-08T02:25:17;9.70;99.90
9497;DHT22;4786;51.270;4.456;2023-04-08T02:27:47;9.60;99.90
9497;DHT22;4786;51.270;4.456;2023-04-08T02:30:16;9.70;99.90
9497;DHT22;4786;51.270;4.456;2023-04-08T02:32:44;9.60;99.90
9497;DHT22;4786;51.270;4.456;2023-04-08T02:35:11;9.60;99.90
9497;DHT22;4786;51.270;4.456;2023-04-08T02:37:38;9.60;99.90
9497;DHT22;4786;51.270;4.456;2023-04-08T02:40:20;9.50;99.90
9497;DHT22;4786;51.270;4.456;2023-04-08T02:42:46;9.60;99.90
9497;DHT22;4786;51.270;4.456;2023-04-08T02:45:12;9.60;99.90
9497;DHT22;4786;51.270;4.456;2023-04-08T02:47:38;9.60;99.90
9497;DHT22;4786;51.270;4.456;2023-04-08T02:50:04;9.60;99.90
9497;DHT22;4786;51.270;4.456;2023-04-08T02:52:30;9.60;99.90
9497;DHT22;4786;51.270;4.456;2023-04-08T02:54:56;9.60;99.90
9497;DHT22;4786;51.270;4.456;2023-04-08T02:57:21;9.70;99.90
9497;DHT22;4786;51.270;4.456;2023-04-08T02:59:47;9.60;99.90
9497;DHT22;4786;51.270;4.456;2023-04-08T03:02:13;9.80;99.90
9497;DHT22;4786;51.270;4.456;2023-04-08T03:04:39;9.70;99.90
9497;DHT22;4786;51.270;4.456;2023-04-08T03:07:05;9.70;99.90
9497;DHT22;4786;51.270;4.456;2023-04-08T03:09:31;9.80;99.90
9497;DHT22;4786;51.270;4.456;2023-04-08T03:11:57;9.70;99.90
9497;DHT22;4786;51.270;4.456;2023-04-08T03:14:22;9.80;99.90
9497;DHT22;4786;51.270;4.456;2023-04-08T03:16:48;9.80;99.90
9497;DHT22;4786;51.270;4.456;2023-04-08T03:19:14;9.70;99.90
9497;DHT22;4786;51.270;4.456;2023-04-08T03:21:40;9.70;99.90
9497;DHT22;4786;51.270;4.456;2023-04-08T03:24:06;9.70;99.90
9497;DHT22;4786;51.270;4.456;2023-04-08T03:26:32;9.80;99.90
9497;DHT22;4786;51.270;4.456;2023-04-08T03:28:58;9.70;99.90
9497;DHT22;4786;51.270;4.456;2023-04-08T03:31:24;9.70;99.90
9497;DHT22;4786;51.270;4.456;2023-04-08T03:33:49;9.70;99.90
9497;DHT22;4786;51.270;4.456;2023-04-08T03:36:16;9.70;99.90
9497;DHT22;4786;51.270;4.456;2023-04-08T03:38:43;9.70;99.90
9497;DHT22;4786;51.270;4.456;2023-04-08T03:41:09;9.70;99.90
9497;DHT22;4786;51.270;4.456;2023-04-08T03:43:35;9.70;99.90
9497;DHT22;4786;51.270;4.456;2023-04-08T03:46:01;9.70;99.90
9497;DHT22;4786;51.270;4.456;2023-04-08T03:48:27;9.70;99.90
9497;DHT22;4786;51.270;4.456;2023-04-08T03:50:53;9.70;99.90
9497;DHT22;4786;51.270;4.456;2023-04-08T03:53:18;9.80;99.90
9497;DHT22;4786;51.270;4.456;2023-04-08T03:55:44;9.60;99.90
9497;DHT22;4786;51.270;4.456;2023-04-08T03:58:10;9.60;99.90
9497;DHT22;4786;51.270;4.456;2023-04-08T04:00:36;9.60;99.90
9497;DHT22;4786;51.270;4.456;2023-04-08T04:03:02;9.60;99.90
9497;DHT22;4786;51.270;4.456;2023-04-08T04:05:28;9.60;99.90
9497;DHT22;4786;51.270;4.456;2023-04-08T04:07:55;9.60;99.90
9497;DHT22;4786;51.270;4.456;2023-04-08T04:10:22;9.60;99.90
9497;DHT22;4786;51.270;4.456;2023-04-08T04:12:49;9.70;99.90
9497;DHT22;4786;51.270;4.456;2023-04-08T04:15:15;9.60;99.90
9497;DHT22;4786;51.270;4.456;2023-04-08T04:17:41;9.50;99.90
9497;DHT22;4786;51.270;4.456;2023-04-08T04:20:07;9.60;99.90
9497;DHT22;4786;51.270;4.456;2023-04-08T04:22:33;9.50;99.90
9497;DHT22;4786;51.270;4.456;2023-04-08T04:24:59;9.50;99.90
9497;DHT22;4786;51.270;4.456;2023-04-08T04:27:25;9.50;99.90
9497;DHT22;4786;51.270;4.456;2023-04-08T04:29:52;9.50;99.90
9497;DHT22;4786;51.270;4.456;2023-04-08T04:32:17;9.60;99.90
9497;DHT22;4786;51.270;4.456;2023-04-08T04:34:43;9.60;99.90
9497;DHT22;4786;51.270;4.456;2023-04-08T04:37:09;9.50;99.90
9497;DHT22;4786;51.270;4.456;2023-04-08T04:39:35;9.40;99.90
9497;DHT22;4786;51.270;4.456;2023-04-08T04:42:01;9.50;99.90
9497;DHT22;4786;51.270;4.456;2023-04-08T04:44:27;9.50;99.90
9497;DHT22;4786;51.270;4.456;2023-04-08T04:46:53;9.50;99.90
9497;DHT22;4786;51.270;4.456;2023-04-08T04:49:19;9.50;99.90
9497;DHT22;4786;51.270;4.456;2023-04-08T04:51:45;9.50;99.90
9497;DHT22;4786;51.270;4.456;2023-04-08T04:54:11;9.50;99.90
9497;DHT22;4786;51.270;4.456;2023-04-08T04:56:36;9.50;99.90
9497;DHT22;4786;51.270;4.456;2023-04-08T04:59:03;9.50;99.90
9497;DHT22;4786;51.270;4.456;2023-04-08T05:01:29;9.50;99.90
9497;DHT22;4786;51.270;4.456;2023-04-08T05:03:55;9.50;99.90
9497;DHT22;4786;51.270;4.456;2023-04-08T05:06:22;9.50;99.90
9497;DHT22;4786;51.270;4.456;2023-04-08T05:08:49;9.50;99.90
9497;DHT22;4786;51.270;4.456;2023-04-08T05:11:16;9.50;99.90
9497;DHT22;4786;51.270;4.456;2023-04-08T05:13:43;9.50;99.90
9497;DHT22;4786;51.270;4.456;2023-04-08T05:16:09;9.50;99.90
9497;DHT22;4786;51.270;4.456;2023-04-08T05:18:35;9.50;99.90
9497;DHT22;4786;51.270;4.456;2023-04-08T05:21:01;9.60;99.90
9497;DHT22;4786;51.270;4.456;2023-04-08T05:23:27;9.60;99.90
9497;DHT22;4786;51.270;4.456;2023-04-08T05:25:53;9.60;99.90
9497;DHT22;4786;51.270;4.456;2023-04-08T05:28:19;9.60;99.90
9497;DHT22;4786;51.270;4.456;2023-04-08T05:30:49;9.60;99.90
9497;DHT22;4786;51.270;4.456;2023-04-08T05:33:15;9.60;99.90
9497;DHT22;4786;51.270;4.456;2023-04-08T05:35:42;9.60;99.90
9497;DHT22;4786;51.270;4.456;2023-04-08T05:38:08;9.50;99.90
9497;DHT22;4786;51.270;4.456;2023-04-08T05:40:33;9.50;99.90
9497;DHT22;4786;51.270;4.456;2023-04-08T05:43:00;9.40;99.90
9497;DHT22;4786;51.270;4.456;2023-04-08T05:45:27;9.40;99.90
9497;DHT22;4786;51.270;4.456;2023-04-08T05:47:53;9.30;99.90
9497;DHT22;4786;51.270;4.456;2023-04-08T05:50:19;9.50;99.90
9497;DHT22;4786;51.270;4.456;2023-04-08T05:52:45;9.40;99.90
9497;DHT22;4786;51.270;4.456;2023-04-08T05:55:14;9.20;99.90
9497;DHT22;4786;51.270;4.456;2023-04-08T05:57:40;9.20;99.90
9497;DHT22;4786;51.270;4.456;2023-04-08T06:00:08;9.20;99.90
9497;DHT22;4786;51.270;4.456;2023-04-08T06:02:35;9.20;99.90
9497;DHT22;4786;51.270;4.456;2023-04-08T06:05:01;9.20;99.90
9497;DHT22;4786;51.270;4.456;2023-04-08T06:07:28;9.30;99.90
9497;DHT22;4786;51.270;4.456;2023-04-08T06:09:54;9.30;99.90
9497;DHT22;4786;51.270;4.456;2023-04-08T06:12:20;9.40;99.90
9497;DHT22;4786;51.270;4.456;2023-04-08T06:14:45;9.40;99.90
9497;DHT22;4786;51.270;4.456;2023-04-08T06:17:12;9.40;99.90
9497;DHT22;4786;51.270;4.456;2023-04-08T06:19:37;9.50;99.90
9497;DHT22;4786;51.270;4.456;2023-04-08T06:22:03;9.50;99.90
9497;DHT22;4786;51.270;4.456;2023-04-08T06:24:28;9.70;99.90
9497;DHT22;4786;51.270;4.456;2023-04-08T06:26:55;9.60;99.90
9497;DHT22;4786;51.270;4.456;2023-04-08T06:29:21;9.70;99.90
9497;DHT22;4786;51.270;4.456;2023-04-08T06:31:48;9.70;99.90
9497;DHT22;4786;51.270;4.456;2023-04-08T06:34:14;9.80;99.90
9497;DHT22;4786;51.270;4.456;2023-04-08T06:36:41;9.70;99.90
9497;DHT22;4786;51.270;4.456;2023-04-08T06:39:07;9.80;99.90
9497;DHT22;4786;51.270;4.456;2023-04-08T06:41:32;9.90;99.90
9497;DHT22;4786;51.270;4.456;2023-04-08T06:43:59;9.90;99.90
9497;DHT22;4786;51.270;4.456;2023-04-08T06:46:25;10.00;99.90
9497;DHT22;4786;51.270;4.456;2023-04-08T06:48:51;10.00;99.90
9497;DHT22;4786;51.270;4.456;2023-04-08T06:51:17;10.00;99.90
9497;DHT22;4786;51.270;4.456;2023-04-08T06:53:43;10.10;99.90
9497;DHT22;4786;51.270;4.456;2023-04-08T06:56:08;10.30;99.90
9497;DHT22;4786;51.270;4.456;2023-04-08T06:58:34;10.10;99.90
9497;DHT22;4786;51.270;4.456;2023-04-08T07:01:00;10.50;99.90
9497;DHT22;4786;51.270;4.456;2023-04-08T07:03:27;10.20;99.90
9497;DHT22;4786;51.270;4.456;2023-04-08T07:05:53;10.50;99.90
9497;DHT22;4786;51.270;4.456;2023-04-08T07:08:20;10.40;99.90
9497;DHT22;4786;51.270;4.456;2023-04-08T07:10:46;10.40;99.90
9497;DHT22;4786;51.270;4.456;2023-04-08T07:13:12;10.50;99.90
9497;DHT22;4786;51.270;4.456;2023-04-08T07:15:38;10.50;99.90
9497;DHT22;4786;51.270;4.456;2023-04-08T07:18:03;10.50;99.90
9497;DHT22;4786;51.270;4.456;2023-04-08T07:20:30;10.50;99.90
9497;DHT22;4786;51.270;4.456;2023-04-08T07:22:56;10.50;99.90
9497;DHT22;4786;51.270;4.456;2023-04-08T07:25:22;10.60;99.90
9497;DHT22;4786;51.270;4.456;2023-04-08T07:27:48;10.70;99.90
9497;DHT22;4786;51.270;4.456;2023-04-08T07:30:14;10.70;99.90
9497;DHT22;4786;51.270;4.456;2023-04-08T07:32:40;10.80;99.90
9497;DHT22;4786;51.270;4.456;2023-04-08T07:35:06;10.80;99.90
9497;DHT22;4786;51.270;4.456;2023-04-08T07:37:31;10.90;99.90
9497;DHT22;4786;51.270;4.456;2023-04-08T07:39:58;10.90;99.90
9497;DHT22;4786;51.270;4.456;2023-04-08T07:42:24;11.00;99.90
9497;DHT22;4786;51.270;4.456;2023-04-08T07:44:50;10.90;99.90
9497;DHT22;4786;51.270;4.456;2023-04-08T07:47:16;10.90;99.90
9497;DHT22;4786;51.270;4.456;2023-04-08T07:49:45;10.90;99.90
9497;DHT22;4786;51.270;4.456;2023-04-08T07:52:11;10.80;99.90
9497;DHT22;4786;51.270;4.456;2023-04-08T07:54:36;10.90;99.90
9497;DHT22;4786;51.270;4.456;2023-04-08T07:57:03;10.90;99.90
9497;DHT22;4786;51.270;4.456;2023-04-08T07:59:28;11.00;99.90
9497;DHT22;4786;51.270;4.456;2023-04-08T08:01:54;11.20;99.90
9497;DHT22;4786;51.270;4.456;2023-04-08T08:04:20;11.00;99.90
9497;DHT22;4786;51.270;4.456;2023-04-08T08:06:46;11.10;99.90
9497;DHT22;4786;51.270;4.456;2023-04-08T08:09:12;11.10;99.90
9497;DHT22;4786;51.270;4.456;2023-04-08T08:11:38;11.10;99.90
9497;DHT22;4786;51.270;4.456;2023-04-08T08:14:04;11.10;99.90
9497;DHT22;4786;51.270;4.456;2023-04-08T08:16:30;11.10;99.90
9497;DHT22;4786;51.270;4.456;2023-04-08T08:18:58;11.20;99.90
9497;DHT22;4786;51.270;4.456;2023-04-08T08:21:24;11.20;99.90
9497;DHT22;4786;51.270;4.456;2023-04-08T08:23:51;11.20;99.90
9497;DHT22;4786;51.270;4.456;2023-04-08T08:26:17;11.30;99.90
9497;DHT22;4786;51.270;4.456;2023-04-08T08:28:43;11.40;99.90
9497;DHT22;4786;51.270;4.456;2023-04-08T08:31:09;11.50;99.90
9497;DHT22;4786;51.270;4.456;2023-04-08T08:33:35;11.60;99.90
9497;DHT22;4786;51.270;4.456;2023-04-08T08:36:01;11.50;99.90
9497;DHT22;4786;51.270;4.456;2023-04-08T08:38:29;11.60;99.90
9497;DHT22;4786;51.270;4.456;2023-04-08T08:40:59;11.60;99.90
9497;DHT22;4786;51.270;4.456;2023-04-08T08:43:26;11.70;99.90
9497;DHT22;4786;51.270;4.456;2023-04-08T08:45:53;11.70;99.90
9497;DHT22;4786;51.270;4.456;2023-04-08T08:48:19;11.80;99.90
9497;DHT22;4786;51.270;4.456;2023-04-08T08:50:45;11.80;99.90
9497;DHT22;4786;51.270;4.456;2023-04-08T08:53:12;11.80;99.90
9497;DHT22;4786;51.270;4.456;2023-04-08T08:55:37;11.70;99.90
9497;DHT22;4786;51.270;4.456;2023-04-08T08:58:04;11.80;99.90
9497;DHT22;4786;51.270;4.456;2023-04-08T09:03:21;11.80;99.90
9497;DHT22;4786;51.270;4.456;2023-04-08T09:05:56;11.80;99.90
9497;DHT22;4786;51.270;4.456;2023-04-08T09:08:34;11.80;99.90
9497;DHT22;4786;51.270;4.456;2023-04-08T09:11:18;11.90;99.90
9497;DHT22;4786;51.270;4.456;2023-04-08T09:13:45;12.00;99.90
9497;DHT22;4786;51.270;4.456;2023-04-08T09:16:12;12.00;99.90
9497;DHT22;4786;51.270;4.456;2023-04-08T09:18:40;12.20;99.90
9497;DHT22;4786;51.270;4.456;2023-04-08T09:21:08;12.40;99.90
9497;DHT22;4786;51.270;4.456;2023-04-08T09:23:42;12.60;99.90
9497;DHT22;4786;51.270;4.456;2023-04-08T09:26:09;12.70;99.90
9497;DHT22;4786;51.270;4.456;2023-04-08T09:28:35;12.90;99.90
9497;DHT22;4786;51.270;4.456;2023-04-08T09:31:23;13.00;99.90
9497;DHT22;4786;51.270;4.456;2023-04-08T09:33:57;13.00;99.90
9497;DHT22;4786;51.270;4.456;2023-04-08T09:36:24;13.10;99.90
9497;DHT22;4786;51.270;4.456;2023-04-08T09:38:51;13.10;99.90
9497;DHT22;4786;51.270;4.456;2023-04-08T09:41:18;13.30;99.90
9497;DHT22;4786;51.270;4.456;2023-04-08T09:43:53;13.70;99.90
9497;DHT22;4786;51.270;4.456;2023-04-08T09:46:31;13.70;99.90
9497;DHT22;4786;51.270;4.456;2023-04-08T09:51:53;14.20;99.90
9497;DHT22;4786;51.270;4.456;2023-04-08T09:57:24;14.60;99.90
9497;DHT22;4786;51.270;4.456;2023-04-08T10:00:10;14.80;99.90
9497;DHT22;4786;51.270;4.456;2023-04-08T10:05:13;15.20;99.90
9497;DHT22;4786;51.270;4.456;2023-04-08T10:07:40;15.30;99.90
9497;DHT22;4786;51.270;4.456;2023-04-08T10:10:07;15.70;99.90
9497;DHT22;4786;51.270;4.456;2023-04-08T10:12:36;15.50;99.90
9497;DHT22;4786;51.270;4.456;2023-04-08T10:17:47;15.90;99.90
9497;DHT22;4786;51.270;4.456;2023-04-08T10:23:01;16.00;99.90
9497;DHT22;4786;51.270;4.456;2023-04-08T10:25:28;15.80;99.90
9497;DHT22;4786;51.270;4.456;2023-04-08T10:27:55;16.00;99.90
9497;DHT22;4786;51.270;4.456;2023-04-08T10:32:54;16.40;99.90
9497;DHT22;4786;51.270;4.456;2023-04-08T10:35:30;16.50;99.90
9497;DHT22;4786;51.270;4.456;2023-04-08T10:37:57;16.50;99.90
9497;DHT22;4786;51.270;4.456;2023-04-08T10:40:23;16.60;99.90
9497;DHT22;4786;51.270;4.456;2023-04-08T10:42:56;16.80;99.90
9497;DHT22;4786;51.270;4.456;2023-04-08T10:45:23;16.80;99.90
9497;DHT22;4786;51.270;4.456;2023-04-08T10:47:49;16.60;99.90
9497;DHT22;4786;51.270;4.456;2023-04-08T10:50:16;16.50;99.90
9497;DHT22;4786;51.270;4.456;2023-04-08T10:52:47;16.60;99.90
9497;DHT22;4786;51.270;4.456;2023-04-08T10:55:12;16.30;99.90
9497;DHT22;4786;51.270;4.456;2023-04-08T10:57:38;16.20;99.90
9497;DHT22;4786;51.270;4.456;2023-04-08T11:00:09;16.10;99.90
9497;DHT22;4786;51.270;4.456;2023-04-08T11:02:38;15.90;99.90
9497;DHT22;4786;51.270;4.456;2023-04-08T11:05:05;15.50;99.90
9497;DHT22;4786;51.270;4.456;2023-04-08T11:07:31;15.30;99.90
9497;DHT22;4786;51.270;4.456;2023-04-08T11:10:02;15.30;99.90
9497;DHT22;4786;51.270;4.456;2023-04-08T11:12:28;15.30;99.90
9497;DHT22;4786;51.270;4.456;2023-04-08T11:14:54;15.20;99.90
9497;DHT22;4786;51.270;4.456;2023-04-08T11:17:20;15.30;99.90
9497;DHT22;4786;51.270;4.456;2023-04-08T11:19:47;15.00;99.90
9497;DHT22;4786;51.270;4.456;2023-04-08T11:22:13;14.90;99.90
9497;DHT22;4786;51.270;4.456;2023-04-08T11:24:39;14.90;99.90
9497;DHT22;4786;51.270;4.456;2023-04-08T11:27:06;14.90;99.90
9497;DHT22;4786;51.270;4.456;2023-04-08T11:29:33;14.80;99.90
9497;DHT22;4786;51.270;4.456;2023-04-08T11:31:59;14.90;99.90
9497;DHT22;4786;51.270;4.456;2023-04-08T11:34:25;14.80;99.90
9497;DHT22;4786;51.270;4.456;2023-04-08T11:36:51;14.80;99.90
9497;DHT22;4786;51.270;4.456;2023-04-08T11:39:21;14.90;99.90
9497;DHT22;4786;51.270;4.456;2023-04-08T11:41:47;14.80;99.90
9497;DHT22;4786;51.270;4.456;2023-04-08T11:44:13;14.80;99.90
9497;DHT22;4786;51.270;4.456;2023-04-08T11:46:39;14.80;99.90
9497;DHT22;4786;51.270;4.456;2023-04-08T11:49:07;14.90;99.90
9497;DHT22;4786;51.270;4.456;2023-04-08T11:51:37;15.20;99.90
9497;DHT22;4786;51.270;4.456;2023-04-08T11:54:29;15.10;99.90
9497;DHT22;4786;51.270;4.456;2023-04-08T11:56:56;15.10;99.90
9497;DHT22;4786;51.270;4.456;2023-04-08T11:59:23;14.90;99.90
9497;DHT22;4786;51.270;4.456;2023-04-08T12:01:51;14.70;99.90
9497;DHT22;4786;51.270;4.456;2023-04-08T12:04:16;14.60;99.90
9497;DHT22;4786;51.270;4.456;2023-04-08T12:06:42;14.80;99.90
9497;DHT22;4786;51.270;4.456;2023-04-08T12:09:13;15.00;99.90
9497;DHT22;4786;51.270;4.456;2023-04-08T12:11:40;15.40;99.90
9497;DHT22;4786;51.270;4.456;2023-04-08T12:14:06;15.50;99.90
9497;DHT22;4786;51.270;4.456;2023-04-08T12:16:32;15.30;99.90
9497;DHT22;4786;51.270;4.456;2023-04-08T12:18:57;15.10;99.90
9497;DHT22;4786;51.270;4.456;2023-04-08T12:21:23;15.10;99.90
9497;DHT22;4786;51.270;4.456;2023-04-08T12:23:49;15.10;99.90
9497;DHT22;4786;51.270;4.456;2023-04-08T12:26:15;15.30;99.90
9497;DHT22;4786;51.270;4.456;2023-04-08T12:28:41;15.40;99.90
9497;DHT22;4786;51.270;4.456;2023-04-08T12:31:07;15.60;99.90
9497;DHT22;4786;51.270;4.456;2023-04-08T12:33:33;15.80;99.90
9497;DHT22;4786;51.270;4.456;2023-04-08T12:35:59;16.00;99.90
9497;DHT22;4786;51.270;4.456;2023-04-08T12:38:25;16.30;99.90
9497;DHT22;4786;51.270;4.456;2023-04-08T12:40:51;16.60;99.90
9497;DHT22;4786;51.270;4.456;2023-04-08T12:43:17;16.90;99.90
9497;DHT22;4786;51.270;4.456;2023-04-08T12:45:44;17.20;99.90
9497;DHT22;4786;51.270;4.456;2023-04-08T12:48:10;17.20;99.90
9497;DHT22;4786;51.270;4.456;2023-04-08T12:50:36;17.10;99.90
9497;DHT22;4786;51.270;4.456;2023-04-08T12:53:02;16.80;99.90
9497;DHT22;4786;51.270;4.456;2023-04-08T12:55:28;16.60;99.90
9497;DHT22;4786;51.270;4.456;2023-04-08T12:57:54;16.20;99.90
9497;DHT22;4786;51.270;4.456;2023-04-08T13:00:21;15.90;99.90
9497;DHT22;4786;51.270;4.456;2023-04-08T13:02:46;15.80;99.90
9497;DHT22;4786;51.270;4.456;2023-04-08T13:05:12;15.60;99.90
9497;DHT22;4786;51.270;4.456;2023-04-08T13:07:38;15.60;99.90
9497;DHT22;4786;51.270;4.456;2023-04-08T13:10:04;15.60;99.90
9497;DHT22;4786;51.270;4.456;2023-04-08T13:12:31;15.40;99.90
9497;DHT22;4786;51.270;4.456;2023-04-08T13:14:57;15.30;99.90
9497;DHT22;4786;51.270;4.456;2023-04-08T13:17:24;15.40;99.90
9497;DHT22;4786;51.270;4.456;2023-04-08T13:19:50;15.50;99.90
9497;DHT22;4786;51.270;4.456;2023-04-08T13:22:16;15.60;99.90
9497;DHT22;4786;51.270;4.456;2023-04-08T13:24:42;15.70;99.90
9497;DHT22;4786;51.270;4.456;2023-04-08T13:27:08;15.70;99.90
9497;DHT22;4786;51.270;4.456;2023-04-08T13:29:34;15.90;99.90
9497;DHT22;4786;51.270;4.456;2023-04-08T13:32:00;15.90;99.90
9497;DHT22;4786;51.270;4.456;2023-04-08T13:34:26;15.90;99.90
9497;DHT22;4786;51.270;4.456;2023-04-08T13:36:52;15.70;99.90
9497;DHT22;4786;51.270;4.456;2023-04-08T13:39:18;15.50;99.90
9497;DHT22;4786;51.270;4.456;2023-04-08T13:41:44;15.40;99.90
9497;DHT22;4786;51.270;4.456;2023-04-08T13:44:11;15.30;99.90
9497;DHT22;4786;51.270;4.456;2023-04-08T13:46:37;15.10;99.90
9497;DHT22;4786;51.270;4.456;2023-04-08T13:49:03;15.00;99.90
9497;DHT22;4786;51.270;4.456;2023-04-08T13:51:30;14.90;99.90
9497;DHT22;4786;51.270;4.456;2023-04-08T13:53:55;14.90;99.90
9497;DHT22;4786;51.270;4.456;2023-04-08T13:56:21;15.10;99.90
9497;DHT22;4786;51.270;4.456;2023-04-08T13:58:47;15.30;99.90
9497;DHT22;4786;51.270;4.456;2023-04-08T14:01:12;15.50;99.90
9497;DHT22;4786;51.270;4.456;2023-04-08T14:03:38;15.70;99.90
9497;DHT22;4786;51.270;4.456;2023-04-08T14:06:04;15.90;99.90
9497;DHT22;4786;51.270;4.456;2023-04-08T14:08:29;16.10;99.90
9497;DHT22;4786;51.270;4.456;2023-04-08T14:10:56;16.10;99.90
9497;DHT22;4786;51.270;4.456;2023-04-08T14:13:22;16.30;99.90
9497;DHT22;4786;51.270;4.456;2023-04-08T14:15:48;16.80;99.90
9497;DHT22;4786;51.270;4.456;2023-04-08T14:18:14;16.60;99.90
9497;DHT22;4786;51.270;4.456;2023-04-08T14:20:43;16.80;99.90
9497;DHT22;4786;51.270;4.456;2023-04-08T14:23:09;17.00;99.90
9497;DHT22;4786;51.270;4.456;2023-04-08T14:25:35;17.00;99.90
9497;DHT22;4786;51.270;4.456;2023-04-08T14:28:02;16.80;99.90
9497;DHT22;4786;51.270;4.456;2023-04-08T14:30:28;16.60;99.90
9497;DHT22;4786;51.270;4.456;2023-04-08T14:33:00;16.40;99.90
9497;DHT22;4786;51.270;4.456;2023-04-08T14:35:26;16.10;99.90
9497;DHT22;4786;51.270;4.456;2023-04-08T14:37:52;15.90;99.90
9497;DHT22;4786;51.270;4.456;2023-04-08T14:40:18;15.80;99.90
9497;DHT22;4786;51.270;4.456;2023-04-08T14:42:44;15.70;99.90
9497;DHT22;4786;51.270;4.456;2023-04-08T14:45:10;15.60;99.90
9497;DHT22;4786;51.270;4.456;2023-04-08T14:47:36;15.60;99.90
9497;DHT22;4786;51.270;4.456;2023-04-08T14:50:02;15.60;99.90
9497;DHT22;4786;51.270;4.456;2023-04-08T14:52:27;15.80;99.90
9497;DHT22;4786;51.270;4.456;2023-04-08T14:54:53;15.90;99.90
9497;DHT22;4786;51.270;4.456;2023-04-08T14:57:19;15.90;99.90
9497;DHT22;4786;51.270;4.456;2023-04-08T14:59:46;15.90;99.90
9497;DHT22;4786;51.270;4.456;2023-04-08T15:02:11;15.90;99.90
9497;DHT22;4786;51.270;4.456;2023-04-08T15:04:38;16.10;99.90
9497;DHT22;4786;51.270;4.456;2023-04-08T15:07:03;16.20;99.90
9497;DHT22;4786;51.270;4.456;2023-04-08T15:09:29;16.20;99.90
9497;DHT22;4786;51.270;4.456;2023-04-08T15:11:55;16.00;99.90
9497;DHT22;4786;51.270;4.456;2023-04-08T15:14:22;15.90;99.90
9497;DHT22;4786;51.270;4.456;2023-04-08T15:16:48;15.80;99.90
9497;DHT22;4786;51.270;4.456;2023-04-08T15:19:14;15.80;99.90
9497;DHT22;4786;51.270;4.456;2023-04-08T15:21:40;15.80;99.90
9497;DHT22;4786;51.270;4.456;2023-04-08T15:24:06;15.80;99.90
9497;DHT22;4786;51.270;4.456;2023-04-08T15:26:32;15.80;99.90
9497;DHT22;4786;51.270;4.456;2023-04-08T15:28:58;15.90;99.90
9497;DHT22;4786;51.270;4.456;2023-04-08T15:31:24;16.00;99.90
9497;DHT22;4786;51.270;4.456;2023-04-08T15:33:50;16.10;99.90
9497;DHT22;4786;51.270;4.456;2023-04-08T15:36:16;15.90;99.90
9497;DHT22;4786;51.270;4.456;2023-04-08T15:38:47;16.00;99.90
9497;DHT22;4786;51.270;4.456;2023-04-08T15:41:17;15.90;99.90
9497;DHT22;4786;51.270;4.456;2023-04-08T15:43:43;15.80;99.90
9497;DHT22;4786;51.270;4.456;2023-04-08T15:46:10;15.90;99.90
9497;DHT22;4786;51.270;4.456;2023-04-08T15:48:36;15.90;99.90
9497;DHT22;4786;51.270;4.456;2023-04-08T15:51:08;16.00;99.90
9497;DHT22;4786;51.270;4.456;2023-04-08T15:53:34;16.00;99.90
9497;DHT22;4786;51.270;4.456;2023-04-08T15:56:00;16.00;99.90
9497;DHT22;4786;51.270;4.456;2023-04-08T15:58:28;16.00;99.90
9497;DHT22;4786;51.270;4.456;2023-04-08T16:00:53;16.10;99.90
9497;DHT22;4786;51.270;4.456;2023-04-08T16:03:20;16.10;99.90
9497;DHT22;4786;51.270;4.456;2023-04-08T16:05:46;16.10;99.90
9497;DHT22;4786;51.270;4.456;2023-04-08T16:08:12;16.10;99.90
9497;DHT22;4786;51.270;4.456;2023-04-08T16:10:38;16.00;99.90
9497;DHT22;4786;51.270;4.456;2023-04-08T16:13:03;15.80;99.90
9497;DHT22;4786;51.270;4.456;2023-04-08T16:15:29;15.60;99.90
9497;DHT22;4786;51.270;4.456;2023-04-08T16:17:55;15.50;99.90
9497;DHT22;4786;51.270;4.456;2023-04-08T16:20:21;15.50;99.90
9497;DHT22;4786;51.270;4.456;2023-04-08T16:22:47;15.50;99.90
9497;DHT22;4786;51.270;4.456;2023-04-08T16:25:16;15.40;99.90
9497;DHT22;4786;51.270;4.456;2023-04-08T16:27:42;15.30;99.90
9497;DHT22;4786;51.270;4.456;2023-04-08T16:30:08;15.30;99.90
9497;DHT22;4786;51.270;4.456;2023-04-08T16:32:33;15.40;99.90